createdAt,value
2019-03-21T00:09:00.802Z,7.70
2019-03-21T00:19:07.804Z,7.47
2019-03-21T00:29:12.986Z,7.53
2019-03-21T00:39:18.037Z,8.00
2019-03-21T00:49:23.236Z,8.33
2019-03-21T00:59:28.405Z,8.33
2019-03-21T01:09:33.799Z,8.27
2019-03-21T01:19:38.970Z,8.00
2019-03-21T01:29:44.004Z,8.43
2019-03-21T01:39:49.382Z,9.30
2019-03-21T01:49:54.640Z,9.37
2019-03-21T01:59:59.658Z,9.87
2019-03-21T02:10:05.287Z,10.70
2019-03-21T02:20:11.463Z,10.53
2019-03-21T02:30:18.284Z,11.23
2019-03-21T02:40:23.932Z,11.60
2019-03-21T02:50:30.506Z,11.47
2019-03-21T03:00:35.834Z,11.93
2019-03-21T03:10:43.170Z,12.07
2019-03-21T03:20:48.475Z,12.67
2019-03-21T03:30:54.256Z,12.50
2019-03-21T03:41:00.215Z,13.13
2019-03-21T03:51:05.473Z,13.43
2019-03-21T04:01:10.648Z,12.03
2019-03-21T04:11:15.889Z,13.17
2019-03-21T04:21:20.877Z,12.97
2019-03-21T04:31:26.083Z,13.23
2019-03-21T04:41:31.141Z,14.07
2019-03-21T04:51:36.614Z,14.57
2019-03-21T05:01:41.911Z,13.33
2019-03-21T05:11:47.096Z,13.83
2019-03-21T05:21:52.387Z,15.13
2019-03-21T05:31:58.801Z,14.17
2019-03-21T05:42:06.002Z,13.90
2019-03-21T05:52:11.272Z,14.90
2019-03-21T06:02:16.498Z,14.70
2019-03-21T06:12:21.636Z,14.50
2019-03-21T06:22:51.864Z,13.43
2019-03-21T06:32:57.132Z,17.83
2019-03-21T06:43:02.354Z,13.97
2019-03-21T06:53:07.588Z,14.33
2019-03-21T07:03:16.412Z,14.63
2019-03-21T07:13:21.610Z,14.43
2019-03-21T07:23:26.892Z,14.30
2019-03-21T07:33:33.146Z,14.87
2019-03-21T07:43:38.574Z,14.03
2019-03-21T07:53:43.660Z,14.73
2019-03-21T08:03:48.976Z,16.00
2019-03-21T08:13:54.452Z,13.90
2019-03-21T08:23:59.943Z,12.77
2019-03-21T08:34:05.712Z,13.10
2019-03-21T08:44:11.070Z,11.73
2019-03-21T08:54:17.209Z,11.00
2019-03-21T09:04:22.673Z,11.50
2019-03-21T09:14:28.284Z,12.03
2019-03-21T09:24:34.071Z,11.63
2019-03-21T09:34:39.449Z,10.90
2019-03-21T09:44:45.503Z,10.37
2019-03-21T09:54:50.809Z,8.70
2019-03-21T10:04:55.948Z,9.40
2019-03-21T10:15:01.349Z,9.53
2019-03-21T10:25:06.691Z,8.27
2019-03-21T10:35:11.781Z,9.50
2019-03-21T10:45:17.398Z,7.10
2019-03-21T10:55:22.615Z,6.57
2019-03-21T11:05:28.005Z,6.77
2019-03-21T11:15:33.591Z,6.80
2019-03-21T11:25:38.569Z,6.83
2019-03-21T11:35:43.692Z,6.33
2019-03-21T11:45:49.178Z,5.93
2019-03-21T11:55:54.511Z,7.47
2019-03-21T12:05:59.918Z,7.37
2019-03-21T12:16:05.370Z,8.13
2019-03-21T12:26:10.488Z,6.97
2019-03-21T12:36:15.978Z,6.90
2019-03-21T12:46:22.643Z,8.80
2019-03-21T12:56:28.210Z,5.97
2019-03-21T13:06:33.372Z,5.93
2019-03-21T13:16:38.552Z,5.20
2019-03-21T13:26:43.804Z,6.13
2019-03-21T13:36:49.018Z,6.17
2019-03-21T13:46:54.346Z,4.77
2019-03-21T13:56:59.798Z,5.33
2019-03-21T14:07:05.164Z,4.60
2019-03-21T14:17:21.349Z,5.17
2019-03-21T14:27:17.514Z,4.83
2019-03-21T14:37:22.578Z,4.50
2019-03-21T14:47:36.124Z,5.23
2019-03-21T14:57:35.064Z,4.40
2019-03-21T15:07:41.674Z,4.20
2019-03-21T15:17:46.752Z,5.90
2019-03-21T15:27:51.841Z,7.07
2019-03-21T15:37:56.975Z,4.97
2019-03-21T15:48:02.637Z,4.37
2019-03-21T15:58:07.698Z,4.90
2019-03-21T16:08:13.151Z,4.60
2019-03-21T16:18:18.595Z,5.60
2019-03-21T16:28:24.218Z,5.77
2019-03-21T16:38:29.619Z,6.47
2019-03-21T16:48:35.916Z,7.37
2019-03-21T16:58:41.177Z,9.57
2019-03-21T17:08:47.468Z,12.00
2019-03-21T17:18:52.767Z,9.80
2019-03-21T17:28:58.505Z,10.60
2019-03-21T17:39:04.664Z,10.53
2019-03-21T17:49:10.305Z,12.10
2019-03-21T17:59:16.999Z,11.37
2019-03-21T18:09:21.983Z,12.93
2019-03-21T18:19:27.649Z,14.23
2019-03-21T18:29:32.819Z,14.37
2019-03-21T18:39:38.003Z,15.73
2019-03-21T18:49:43.355Z,15.93
2019-03-21T18:59:48.756Z,17.03
2019-03-21T19:09:54.972Z,18.07
2019-03-21T19:19:59.952Z,19.43
2019-03-21T19:30:06.142Z,22.63
2019-03-21T19:40:13.611Z,21.30
2019-03-21T19:50:19.456Z,21.60
2019-03-21T20:00:25.948Z,21.03
2019-03-21T20:10:31.388Z,20.80
2019-03-21T20:20:37.100Z,22.47
2019-03-21T20:30:42.234Z,20.93
2019-03-21T20:40:49.171Z,21.30
2019-03-21T20:50:54.594Z,22.23
2019-03-21T21:00:59.969Z,23.67
2019-03-21T21:11:06.597Z,21.33
2019-03-21T21:21:11.773Z,21.60
2019-03-21T21:31:16.769Z,22.27
2019-03-21T21:41:22.027Z,21.23
2019-03-21T21:51:28.007Z,21.63
2019-03-21T22:01:36.730Z,21.87
2019-03-21T22:11:42.146Z,21.13
2019-03-21T22:21:47.545Z,19.53
2019-03-21T22:31:53.589Z,19.27
2019-03-21T22:41:59.049Z,21.27
2019-03-21T22:52:04.455Z,20.13
2019-03-21T23:02:10.072Z,19.93
2019-03-21T23:12:15.499Z,19.80
2019-03-21T23:22:21.164Z,19.80
2019-03-21T23:32:26.357Z,21.80
2019-03-21T23:42:32.041Z,20.07
2019-03-21T23:52:37.206Z,22.50
